Madison, Wisconsin
Current Conditions -  °F | °C
As of 4:53 AM on Wednesday 26 Nov 2014 (Local Time) from KMSN Reporting Station
Clear Clear  
Wind Chill:   Ceiling: Unl
Heat Index: 11°   Visibility: 7mi
Dew Point:   Wind: 5mph
Humidity: 88%   Direction: 110°ESE
Pressure: 30.12"   Gusts: NA
Location:  43.07°N, 89.39°W
Report Text: KMSN 261053Z AUTO 11004KT 7SM CLR M12/M13 A3012 RMK AO2 SLP216 I1000 T11171133
Loading
Personal Weather Stations






























Interactive Weather Map New forecast layout! Learn more

10-Day Weather Forecast

Advertisements
Track Severe Weather on mobile